Time;durP1;ratioP1;P1;durP2;ratioP2;P2;SDS_P1;SDS_P2;PMS_P1;PMS_P2;Temp;Humidity;BMP_temperature;BMP_pressure;BME280_temperature;BME280_humidity;BME280_pressure;Samples;Min_cycle;Max_cycle;Signal;HPM_P1;HPM_P2
2021/03/03 00:01:21;;;;;;;28.20;13.73;;;;;;;-1.99;100.00;102367.13;5013829;28;20229;-70
2021/03/03 00:03:47;;;;;;;26.10;12.90;;;;;;;-1.99;100.00;102371.38;5019330;28;20211;-71
2021/03/03 00:06:13;;;;;;;29.50;14.00;;;;;;;-2.01;100.00;102370.41;4995688;28;20736;-73
2021/03/03 00:08:39;;;;;;;24.80;12.77;;;;;;;-1.92;100.00;102369.25;4991154;28;20220;-71
2021/03/03 00:11:05;;;;;;;30.17;15.03;;;;;;;-1.84;100.00;102366.19;5012699;28;20220;-71
2021/03/03 00:13:31;;;;;;;30.10;14.53;;;;;;;-1.96;100.00;102362.19;5018883;28;20197;-70
2021/03/03 00:15:57;;;;;;;25.33;14.30;;;;;;;-1.99;100.00;102368.81;5011562;28;20196;-71
2021/03/03 00:18:23;;;;;;;24.90;13.40;;;;;;;-2.03;100.00;102366.91;5012598;28;20201;-72
2021/03/03 00:20:50;;;;;;;22.80;13.03;;;;;;;-2.03;100.00;102374.56;5010555;28;20224;-71
2021/03/03 00:23:15;;;;;;;22.73;13.33;;;;;;;-2.06;100.00;102380.38;5024513;28;20210;-70
2021/03/03 00:25:41;;;;;;;27.50;13.47;;;;;;;-2.09;100.00;102387.91;5016923;28;20198;-70
2021/03/03 00:28:07;;;;;;;25.37;12.27;;;;;;;-2.11;100.00;102384.38;5015724;28;20296;-70
2021/03/03 00:30:33;;;;;;;26.47;13.27;;;;;;;-2.11;100.00;102387.81;4997449;28;20227;-71
2021/03/03 00:32:59;;;;;;;24.57;13.17;;;;;;;-2.17;100.00;102392.59;5012915;28;20197;-70
2021/03/03 00:35:26;;;;;;;26.60;14.30;;;;;;;-2.29;100.00;102389.38;5016256;28;20224;-71
2021/03/03 00:37:52;;;;;;;30.37;15.47;;;;;;;-2.22;100.00;102388.03;5022513;28;20192;-70
2021/03/03 00:40:18;;;;;;;31.70;13.97;;;;;;;-2.23;100.00;102384.59;5022790;28;20467;-70
2021/03/03 00:42:44;;;;;;;25.93;13.47;;;;;;;-2.17;100.00;102386.59;5016372;28;20230;-70
2021/03/03 00:45:11;;;;;;;27.87;14.77;;;;;;;-2.13;100.00;102379.19;5016476;28;20518;-70
2021/03/03 00:47:37;;;;;;;23.50;13.00;;;;;;;-2.17;100.00;102381.50;5013955;28;20230;-71
2021/03/03 00:50:09;;;;;;;26.30;14.10;;;;;;;-2.11;100.00;102380.16;5002740;28;20629;-70
2021/03/03 00:52:41;;;;;;;25.77;13.07;;;;;;;-2.26;100.00;102374.22;4993026;28;20462;-73
2021/03/03 00:55:09;;;;;;;24.53;13.07;;;;;;;-2.30;100.00;102377.41;4999604;28;20199;-73
2021/03/03 00:57:39;;;;;;;24.63;12.93;;;;;;;-2.27;100.00;102377.56;5019235;28;20450;-70
2021/03/03 01:00:07;;;;;;;24.33;13.37;;;;;;;-2.26;100.00;102375.91;5014726;28;20560;-71
2021/03/03 01:02:33;;;;;;;29.63;13.97;;;;;;;-2.17;100.00;102378.94;5008756;28;20457;-70
2021/03/03 01:04:59;;;;;;;30.80;14.97;;;;;;;-2.44;100.00;102369.00;5010055;28;20478;-71
2021/03/03 01:07:26;;;;;;;27.90;15.00;;;;;;;-2.39;100.00;102371.78;4999702;28;20453;-73
2021/03/03 01:09:53;;;;;;;35.70;17.57;;;;;;;-2.38;100.00;102365.88;4991120;28;20477;-71
2021/03/03 01:12:19;;;;;;;33.63;15.40;;;;;;;-2.43;100.00;102360.50;5019866;28;20932;-70
2021/03/03 01:14:46;;;;;;;27.47;14.00;;;;;;;-2.36;100.00;102359.16;5000933;28;20595;-71
2021/03/03 01:17:16;;;;;;;27.07;13.40;;;;;;;-2.28;100.00;102357.94;5002686;28;20489;-70
2021/03/03 01:19:42;;;;;;;32.33;14.73;;;;;;;-2.55;100.00;102358.19;5010424;28;20456;-70
2021/03/03 01:22:08;;;;;;;28.40;14.33;;;;;;;-2.57;100.00;102351.22;5011629;28;20452;-71
2021/03/03 01:24:34;;;;;;;29.47;13.77;;;;;;;-2.47;100.00;102354.34;5013381;28;21302;-70
2021/03/03 01:27:01;;;;;;;27.77;13.40;;;;;;;-2.53;100.00;102353.16;5019694;28;20458;-70
2021/03/03 01:29:27;;;;;;;27.00;13.43;;;;;;;-2.45;100.00;102356.13;5012064;28;20208;-73
2021/03/03 01:31:53;;;;;;;25.33;13.90;;;;;;;-2.63;100.00;102358.56;5017701;28;20994;-70
2021/03/03 01:34:19;;;;;;;26.53;14.13;;;;;;;-2.43;100.00;102347.72;5007900;28;20199;-70
2021/03/03 01:36:45;;;;;;;30.70;14.23;;;;;;;-2.50;100.00;102344.00;5016943;28;20196;-71
2021/03/03 01:39:11;;;;;;;23.87;13.27;;;;;;;-2.61;100.00;102339.09;5001609;28;20203;-71
2021/03/03 01:41:37;;;;;;;30.37;15.17;;;;;;;-2.87;100.00;102336.84;5015323;28;20318;-73
2021/03/03 01:44:04;;;;;;;27.80;14.80;;;;;;;-2.94;100.00;102331.28;5002575;28;20294;-73
2021/03/03 01:46:30;;;;;;;37.07;16.17;;;;;;;-2.95;100.00;102330.41;5011099;28;20521;-70
2021/03/03 01:48:56;;;;;;;26.37;14.03;;;;;;;-2.98;100.00;102324.25;5016062;28;20455;-70
2021/03/03 01:51:22;;;;;;;28.23;13.80;;;;;;;-2.93;100.00;102317.75;5009579;28;20470;-70
2021/03/03 01:53:48;;;;;;;32.00;14.73;;;;;;;-2.98;100.00;102319.16;5017415;28;20197;-71
2021/03/03 01:56:15;;;;;;;23.97;12.87;;;;;;;-3.03;100.00;102313.78;5017878;28;20461;-71
2021/03/03 01:58:41;;;;;;;23.63;13.00;;;;;;;-2.96;100.00;102315.88;5009748;28;20197;-71
2021/03/03 02:01:08;;;;;;;27.30;13.57;;;;;;;-3.01;100.00;102313.88;4991601;28;20489;-71
2021/03/03 02:03:37;;;;;;;26.27;13.17;;;;;;;-2.93;100.00;102310.09;4998173;28;20515;-70
2021/03/03 02:06:12;;;;;;;27.87;14.07;;;;;;;-3.07;100.00;102310.19;5003077;28;20452;-70
2021/03/03 02:08:41;;;;;;;23.60;12.57;;;;;;;-2.96;100.00;102307.34;5011844;28;20909;-70
2021/03/03 02:11:14;;;;;;;22.57;11.33;;;;;;;-2.81;100.00;102297.09;5011447;28;20486;-70
2021/03/03 02:13:43;;;;;;;20.50;11.53;;;;;;;-2.76;100.00;102299.16;5011709;28;20497;-70
2021/03/03 02:16:12;;;;;;;18.73;11.07;;;;;;;-2.76;100.00;102290.59;5010465;28;20451;-74
2021/03/03 02:18:41;;;;;;;22.57;11.53;;;;;;;-2.83;100.00;102284.28;5016399;28;20454;-70
2021/03/03 02:21:12;;;;;;;22.13;11.73;;;;;;;-2.84;100.00;102292.72;5016032;28;20467;-72
2021/03/03 02:23:45;;;;;;;20.60;10.93;;;;;;;-2.76;100.00;102288.03;5009187;28;20565;-70
2021/03/03 02:26:14;;;;;;;21.87;11.83;;;;;;;-2.92;100.00;102299.97;5013611;28;20457;-72
2021/03/03 02:28:42;;;;;;;20.03;10.70;;;;;;;-2.85;100.00;102296.06;5004206;28;20760;-70
2021/03/03 02:31:08;;;;;;;22.43;10.33;;;;;;;-2.82;100.00;102290.25;5015768;28;20466;-71
2021/03/03 02:33:36;;;;;;;18.80;10.47;;;;;;;-2.75;100.00;102290.66;4994305;28;20449;-70
2021/03/03 02:36:03;;;;;;;22.97;10.57;;;;;;;-2.84;100.00;102292.72;5009240;28;20507;-70
2021/03/03 02:38:29;;;;;;;19.17;10.43;;;;;;;-2.81;100.00;102289.44;5003325;28;20453;-71
2021/03/03 02:40:56;;;;;;;19.77;10.43;;;;;;;-2.80;100.00;102289.53;5013909;28;20958;-70
2021/03/03 02:43:23;;;;;;;19.77;10.67;;;;;;;-2.74;100.00;102282.22;5011193;28;20945;-71
2021/03/03 02:45:50;;;;;;;19.70;10.13;;;;;;;-2.75;100.00;102275.34;5015613;28;20451;-71
2021/03/03 02:48:16;;;;;;;20.17;10.60;;;;;;;-3.04;100.00;102273.75;5015186;28;20497;-70
2021/03/03 02:50:43;;;;;;;22.87;10.83;;;;;;;-3.16;100.00;102268.84;4998013;28;20544;-70
2021/03/03 02:53:09;;;;;;;25.87;12.23;;;;;;;-3.33;100.00;102265.31;5014035;28;20775;-72
2021/03/03 02:55:35;;;;;;;22.27;11.00;;;;;;;-3.28;100.00;102263.91;5015207;28;20456;-72
2021/03/03 02:58:04;;;;;;;19.73;10.13;;;;;;;-3.15;100.00;102265.50;5020578;28;20435;-71
2021/03/03 03:00:32;;;;;;;18.30;10.27;;;;;;;-3.30;100.00;102274.84;4992529;28;20470;-72
2021/03/03 03:03:03;;;;;;;20.10;10.37;;;;;;;-3.34;100.00;102271.25;5016246;28;20451;-71
2021/03/03 03:05:33;;;;;;;19.40;10.30;;;;;;;-3.17;100.00;102266.19;5017366;28;20488;-70
2021/03/03 03:08:03;;;;;;;17.00;9.23;;;;;;;-3.20;100.00;102259.28;4992228;28;21361;-70
2021/03/03 03:10:30;;;;;;;22.23;10.17;;;;;;;-3.39;100.00;102257.34;5014464;28;20844;-73
2021/03/03 03:12:58;;;;;;;20.60;10.83;;;;;;;-3.27;100.00;102252.06;4995664;28;20460;-73
2021/03/03 03:15:29;;;;;;;17.47;10.27;;;;;;;-3.21;100.00;102252.41;5019775;28;20959;-73
2021/03/03 03:18:01;;;;;;;20.77;9.57;;;;;;;-3.20;100.00;102250.72;5020218;28;20532;-70
2021/03/03 03:20:31;;;;;;;19.77;10.00;;;;;;;-3.19;100.00;102248.25;5017849;28;20565;-72
2021/03/03 03:23:00;;;;;;;18.67;10.47;;;;;;;-3.18;100.00;102247.47;5013764;28;20445;-71
2021/03/03 03:25:28;;;;;;;19.77;9.73;;;;;;;-3.34;100.00;102239.72;5017837;28;20488;-70
2021/03/03 03:27:57;;;;;;;16.03;9.90;;;;;;;-3.29;100.00;102235.78;4999821;28;20456;-70
2021/03/03 03:30:25;;;;;;;18.97;9.77;;;;;;;-3.19;100.00;102239.72;5011569;28;20510;-75
2021/03/03 03:32:52;;;;;;;17.77;10.07;;;;;;;-3.15;100.00;102240.00;5018816;28;20433;-72
2021/03/03 03:35:19;;;;;;;18.10;9.93;;;;;;;-3.20;100.00;102235.41;5013320;28;20472;-73
2021/03/03 03:37:45;;;;;;;18.60;8.87;;;;;;;-3.20;100.00;102230.31;5012317;28;20456;-74
2021/03/03 03:40:12;;;;;;;17.67;9.87;;;;;;;-3.27;100.00;102231.66;5010033;28;20492;-71
2021/03/03 03:42:40;;;;;;;19.13;9.90;;;;;;;-3.38;100.00;102240.38;5008731;28;20662;-71
2021/03/03 03:45:07;;;;;;;14.73;9.47;;;;;;;-3.42;100.00;102242.72;5006785;28;20476;-71
2021/03/03 03:47:35;;;;;;;16.03;8.70;;;;;;;-3.30;100.00;102247.66;5014758;28;20452;-71
2021/03/03 03:50:03;;;;;;;15.63;8.40;;;;;;;-3.33;100.00;102239.81;5008953;28;20473;-70
2021/03/03 03:52:30;;;;;;;16.53;8.90;;;;;;;-3.40;100.00;102241.94;5015617;28;20448;-72
2021/03/03 03:54:56;;;;;;;18.57;9.90;;;;;;;-3.46;100.00;102232.28;5008107;28;20448;-70
2021/03/03 03:57:23;;;;;;;13.47;8.17;;;;;;;-3.44;100.00;102236.66;5013797;28;20490;-71
2021/03/03 03:59:50;;;;;;;15.23;8.60;;;;;;;-3.42;100.00;102242.72;5010632;28;20448;-72
2021/03/03 04:02:16;;;;;;;16.17;8.87;;;;;;;-3.40;100.00;102241.94;5007465;28;20939;-70
2021/03/03 04:04:42;;;;;;;14.77;8.60;;;;;;;-3.35;100.00;102238.00;5015028;28;20930;-70
2021/03/03 04:07:09;;;;;;;14.33;7.67;;;;;;;-3.38;100.00;102231.03;5010187;28;20442;-73
2021/03/03 04:09:36;;;;;;;17.57;8.50;;;;;;;-3.45;100.00;102240.03;5010047;28;20862;-71
2021/03/03 04:12:02;;;;;;;14.63;8.40;;;;;;;-3.54;100.00;102239.47;5014984;28;20538;-72
2021/03/03 04:14:28;;;;;;;13.30;7.87;;;;;;;-3.37;100.00;102235.34;5013599;28;20898;-70
2021/03/03 04:16:54;;;;;;;14.57;8.57;;;;;;;-3.44;100.00;102238.34;5007469;28;20535;-70
2021/03/03 04:19:20;;;;;;;14.87;8.23;;;;;;;-3.43;100.00;102228.25;4994978;28;21006;-71
2021/03/03 04:21:47;;;;;;;16.20;8.33;;;;;;;-3.48;100.00;102226.22;5018445;28;20299;-72
2021/03/03 04:24:13;;;;;;;12.77;8.23;;;;;;;-3.42;100.00;102234.22;5012252;28;20220;-72
2021/03/03 04:26:40;;;;;;;15.80;8.10;;;;;;;-3.35;100.00;102232.88;5009601;28;21352;-70
2021/03/03 04:29:06;;;;;;;14.53;7.83;;;;;;;-3.32;100.00;102233.06;5015411;28;20968;-69
2021/03/03 04:31:32;;;;;;;12.30;8.03;;;;;;;-3.40;100.00;102224.97;5008913;28;20479;-69
2021/03/03 04:33:58;;;;;;;14.27;7.27;;;;;;;-3.46;100.00;102222.09;5013110;28;20543;-70
2021/03/03 04:36:24;;;;;;;15.43;7.70;;;;;;;-3.44;100.00;102216.25;5012826;28;20562;-70
2021/03/03 04:38:50;;;;;;;15.33;8.37;;;;;;;-3.45;100.00;102217.06;5020166;28;20475;-70
2021/03/03 04:41:16;;;;;;;13.00;7.60;;;;;;;-3.52;100.00;102214.06;5005169;28;20228;-72
2021/03/03 04:43:43;;;;;;;12.83;8.27;;;;;;;-3.60;100.00;102221.28;5007267;28;20480;-74
2021/03/03 04:46:09;;;;;;;13.40;7.90;;;;;;;-3.64;100.00;102210.03;5013842;28;20307;-71
2021/03/03 04:48:35;;;;;;;12.13;6.77;;;;;;;-3.63;100.00;102208.38;5005926;28;20984;-71
2021/03/03 04:51:01;;;;;;;11.60;7.40;;;;;;;-3.50;100.00;102205.72;5012290;28;20278;-74
2021/03/03 04:53:26;;;;;;;15.40;8.07;;;;;;;-3.59;100.00;102199.22;5007003;28;20194;-73
2021/03/03 04:55:52;;;;;;;12.33;7.50;;;;;;;-3.69;100.00;102201.25;5014020;28;20198;-72
2021/03/03 04:58:18;;;;;;;13.57;7.87;;;;;;;-3.71;100.00;102199.38;5012459;28;20286;-74
2021/03/03 05:00:45;;;;;;;11.43;7.20;;;;;;;-3.80;100.00;102202.28;5022236;28;20257;-73
2021/03/03 05:03:11;;;;;;;12.03;6.80;;;;;;;-3.66;100.00;102193.78;5018200;28;20727;-72
2021/03/03 05:05:37;;;;;;;13.27;7.10;;;;;;;-3.68;100.00;102195.34;5008099;28;20507;-71
2021/03/03 05:08:03;;;;;;;13.60;7.83;;;;;;;-3.68;100.00;102194.47;5011247;28;20197;-73
2021/03/03 05:10:29;;;;;;;15.43;7.77;;;;;;;-3.72;100.00;102190.88;5015625;28;20232;-73
2021/03/03 05:12:55;;;;;;;13.67;7.77;;;;;;;-3.70;100.00;102196.06;5005336;28;20820;-71
2021/03/03 05:15:21;;;;;;;13.57;7.73;;;;;;;-3.86;100.00;102200.28;5017237;28;20447;-74
2021/03/03 05:17:48;;;;;;;15.60;8.10;;;;;;;-3.86;100.00;102196.84;5005133;28;20733;-73
2021/03/03 05:20:15;;;;;;;13.03;7.43;;;;;;;-3.87;100.00;102195.09;4999962;28;20222;-70
2021/03/03 05:22:41;;;;;;;13.53;7.70;;;;;;;-3.85;100.00;102201.19;5013875;28;21025;-70
2021/03/03 05:25:08;;;;;;;14.57;7.00;;;;;;;-3.79;100.00;102193.88;5024357;28;20607;-70
2021/03/03 05:27:34;;;;;;;11.57;7.37;;;;;;;-3.80;100.00;102197.19;5009954;28;20466;-71
2021/03/03 05:30:00;;;;;;;13.53;7.17;;;;;;;-3.82;100.00;102198.78;5011179;28;20473;-73
2021/03/03 05:32:26;;;;;;;11.90;6.87;;;;;;;-3.91;100.00;102188.06;4990658;28;20285;-75
2021/03/03 05:34:52;;;;;;;12.23;7.33;;;;;;;-3.87;100.00;102193.44;5014338;28;20280;-74
2021/03/03 05:37:18;;;;;;;11.63;6.97;;;;;;;-3.81;100.00;102186.13;5010106;28;20192;-70
2021/03/03 05:39:44;;;;;;;13.77;7.03;;;;;;;-3.86;100.00;102186.66;5016394;28;20531;-70
2021/03/03 05:42:10;;;;;;;10.43;6.40;;;;;;;-3.86;100.00;102194.31;5016045;28;20740;-73
2021/03/03 05:44:37;;;;;;;12.50;7.53;;;;;;;-3.79;100.00;102191.31;5012268;28;20238;-71
2021/03/03 05:47:03;;;;;;;12.63;7.73;;;;;;;-3.75;100.00;102189.81;5018211;28;20450;-72
2021/03/03 05:49:33;;;;;;;14.90;7.80;;;;;;;-3.70;100.00;102191.84;5010169;28;21036;-72
2021/03/03 05:52:00;;;;;;;13.67;7.37;;;;;;;-3.57;100.00;102195.97;4999356;28;20553;-75
2021/03/03 05:54:27;;;;;;;12.93;6.80;;;;;;;-3.59;100.00;102192.44;4993146;28;20438;-70
2021/03/03 05:56:53;;;;;;;15.97;7.60;;;;;;;-3.74;100.00;102192.47;5000904;28;20453;-74
2021/03/03 05:59:19;;;;;;;13.97;6.53;;;;;;;-3.66;100.00;102182.69;5010323;28;20451;-71
2021/03/03 06:01:45;;;;;;;14.27;7.43;;;;;;;-3.60;100.00;102183.06;4992807;28;20232;-70
2021/03/03 06:04:12;;;;;;;13.80;7.37;;;;;;;-3.65;100.00;102181.91;5005684;28;20214;-71
2021/03/03 06:06:41;;;;;;;15.43;7.13;;;;;;;-3.68;100.00;102190.25;5009486;28;20448;-71
2021/03/03 06:09:09;;;;;;;12.63;7.33;;;;;;;-3.78;100.00;102190.53;5006177;28;20534;-72
2021/03/03 06:11:35;;;;;;;14.40;7.30;;;;;;;-3.72;100.00;102179.81;5008160;28;20528;-71
2021/03/03 06:14:01;;;;;;;13.07;7.47;;;;;;;-3.77;100.00;102191.41;5008154;28;20438;-71
2021/03/03 06:16:27;;;;;;;13.63;7.93;;;;;;;-3.66;100.00;102186.13;5008738;28;20465;-71
2021/03/03 06:18:54;;;;;;;12.10;7.53;;;;;;;-3.69;100.00;102190.19;5019529;28;20198;-70
2021/03/03 06:21:25;;;;;;;16.10;7.57;;;;;;;-3.59;100.00;102192.44;5010189;28;20468;-71
2021/03/03 06:23:59;;;;;;;12.03;6.87;;;;;;;-3.66;100.00;102182.69;5007683;28;20442;-70
2021/03/03 06:26:26;;;;;;;14.07;7.63;;;;;;;-3.75;100.00;102185.59;4982040;28;20476;-71
2021/03/03 06:28:52;;;;;;;14.70;7.83;;;;;;;-3.70;100.00;102186.72;5015132;28;20946;-70
2021/03/03 06:31:30;;;;;;;16.67;8.33;;;;;;;-3.70;100.00;102189.28;5014401;28;20476;-71
2021/03/03 06:34:09;;;;;;;13.30;7.00;;;;;;;-3.63;100.00;102187.97;5010786;28;20451;-71
2021/03/03 06:36:36;;;;;;;12.23;6.77;;;;;;;-3.57;100.00;102192.53;4992486;28;20490;-70
2021/03/03 06:39:20;;;;;;;10.83;6.60;;;;;;;-3.41;100.00;102190.06;5013009;28;20446;-71
2021/03/03 06:41:47;;;;;;;14.77;7.30;;;;;;;-3.42;100.00;102184.06;5009711;28;20493;-71
2021/03/03 06:44:13;;;;;;;18.63;8.47;;;;;;;-3.34;100.00;102186.16;5010477;28;20491;-71
2021/03/03 06:46:39;;;;;;;20.23;10.50;;;;;;;-3.26;100.00;102179.81;5011124;28;20475;-70
2021/03/03 06:49:20;;;;;;;17.77;8.83;;;;;;;-3.25;100.00;102177.34;5006489;28;20817;-71
2021/03/03 06:51:47;;;;;;;16.07;8.67;;;;;;;-3.35;100.00;102172.53;5008206;28;20482;-71
2021/03/03 06:54:18;;;;;;;18.07;9.60;;;;;;;-3.16;100.00;102177.00;5009026;28;20567;-71
2021/03/03 06:56:46;;;;;;;18.03;9.37;;;;;;;-3.13;100.00;102187.38;5008758;28;20453;-71
2021/03/03 06:59:15;;;;;;;17.87;9.43;;;;;;;-3.12;100.00;102181.44;5007137;28;20442;-71
2021/03/03 07:01:42;;;;;;;16.50;9.10;;;;;;;-3.12;100.00;102176.34;5007966;28;20504;-71
2021/03/03 07:04:33;;;;;;;16.43;8.33;;;;;;;-3.04;100.00;102176.78;5005020;28;20844;-71
2021/03/03 07:07:00;;;;;;;14.20;7.90;;;;;;;-2.98;100.00;102174.53;4974216;28;20487;-71
2021/03/03 07:09:37;;;;;;;16.17;8.23;;;;;;;-2.88;100.00;102181.03;5009001;28;20460;-71
2021/03/03 07:12:07;;;;;;;15.67;8.07;;;;;;;-2.78;100.00;102175.63;4992815;28;20457;-71
2021/03/03 07:14:35;;;;;;;17.30;8.20;;;;;;;-2.68;100.00;102169.31;5010070;28;20450;-71
2021/03/03 07:17:07;;;;;;;16.23;7.67;;;;;;;-2.51;100.00;102167.66;5013512;28;20805;-71
2021/03/03 07:19:35;;;;;;;14.60;7.77;;;;;;;-2.40;100.00;102168.22;5004600;28;20497;-71
2021/03/03 07:22:03;;;;;;;15.70;7.83;;;;;;;-2.28;100.00;102161.16;5007939;28;20482;-71
2021/03/03 07:24:29;;;;;;;17.70;8.00;;;;;;;-2.17;100.00;102160.03;5007566;28;21011;-70
2021/03/03 07:26:56;;;;;;;16.10;8.07;;;;;;;-2.00;100.00;102167.69;5013650;28;20466;-71
2021/03/03 07:29:23;;;;;;;16.43;8.00;;;;;;;-1.88;100.00;102164.81;5009761;28;20450;-70
2021/03/03 07:31:52;;;;;;;16.30;9.13;;;;;;;-1.76;100.00;102165.44;5015390;28;20258;-71
2021/03/03 07:34:19;;;;;;;18.67;8.37;;;;;;;-1.63;100.00;102170.34;4990927;28;20205;-71
2021/03/03 07:36:50;;;;;;;21.00;9.20;;;;;;;-1.51;100.00;102167.50;4995158;28;20255;-71
2021/03/03 07:39:21;;;;;;;21.43;9.53;;;;;;;-1.37;100.00;102163.06;5019700;28;20286;-71
2021/03/03 07:41:48;;;;;;;18.10;9.20;;;;;;;-1.22;100.00;102157.75;5009055;28;20341;-71
2021/03/03 07:44:20;;;;;;;19.87;9.37;;;;;;;-1.08;100.00;102158.41;5003852;28;20215;-71
2021/03/03 07:46:49;;;;;;;19.87;9.43;;;;;;;-0.95;100.00;102153.03;5006583;28;20554;-71
2021/03/03 07:49:23;;;;;;;19.53;9.77;;;;;;;-0.85;100.00;102147.50;4992074;28;20668;-71
2021/03/03 07:51:50;;;;;;;17.93;9.77;;;;;;;-0.71;100.00;102154.94;5005864;28;20668;-71
2021/03/03 07:54:17;;;;;;;22.10;10.13;;;;;;;-0.59;100.00;102150.38;5000594;28;20197;-71
2021/03/03 07:56:44;;;;;;;21.13;10.03;;;;;;;-0.42;100.00;102151.13;5002599;28;20661;-71
2021/03/03 07:59:12;;;;;;;22.03;10.00;;;;;;;-0.27;100.00;102154.31;5010615;28;20196;-72
2021/03/03 08:01:39;;;;;;;24.40;11.97;;;;;;;-0.11;100.00;102149.84;5007818;28;20637;-71
2021/03/03 08:04:06;;;;;;;28.03;12.07;;;;;;;-0.03;100.00;102144.22;5007745;28;20231;-71
2021/03/03 08:06:37;;;;;;;26.93;13.00;;;;;;;0.14;100.00;102136.34;5007847;28;20556;-71
2021/03/03 08:09:19;;;;;;;31.57;12.73;;;;;;;0.31;100.00;102135.31;5009138;28;21419;-72
2021/03/03 08:11:48;;;;;;;33.53;14.40;;;;;;;0.51;100.00;102131.00;5009035;28;20221;-71
2021/03/03 08:14:33;;;;;;;31.00;13.63;;;;;;;0.76;100.00;102126.81;5009736;28;20195;-71
2021/03/03 08:17:02;;;;;;;34.53;14.20;;;;;;;0.92;100.00;102135.97;5011802;28;20295;-71
2021/03/03 08:19:51;;;;;;;36.00;15.30;;;;;;;1.10;99.28;102135.78;4984135;28;20194;-71
2021/03/03 08:22:21;;;;;;;36.97;15.60;;;;;;;1.29;96.60;102139.91;5010876;28;20205;-72
2021/03/03 08:24:48;;;;;;;31.50;13.40;;;;;;;1.38;95.94;102140.22;5009682;28;20243;-72
2021/03/03 08:27:36;;;;;;;30.53;14.50;;;;;;;1.55;96.30;102129.66;5009929;28;20209;-72
2021/03/03 08:30:10;;;;;;;42.07;15.23;;;;;;;1.67;96.34;102136.13;5013021;28;20228;-72
2021/03/03 08:32:38;;;;;;;32.57;14.87;;;;;;;1.85;93.76;102130.72;5016313;28;20201;-72
2021/03/03 08:35:06;;;;;;;59.17;19.30;;;;;;;1.99;91.65;102131.19;5012573;28;20202;-72
2021/03/03 08:37:35;;;;;;;39.60;16.40;;;;;;;2.06;92.63;102132.25;5018147;28;20200;-72
2021/03/03 08:40:05;;;;;;;39.07;14.63;;;;;;;2.25;88.74;102132.03;5013167;28;20210;-72
2021/03/03 08:42:35;;;;;;;47.77;20.10;;;;;;;2.34;89.12;102131.47;5014308;28;20204;-72
2021/03/03 08:45:08;;;;;;;70.87;23.27;;;;;;;2.54;87.37;102133.78;5021161;28;20671;-72
2021/03/03 08:48:09;;;;;;;53.20;19.57;;;;;;;2.68;86.42;102136.78;5010214;28;20215;-72
2021/03/03 08:50:42;;;;;;;38.13;15.33;;;;;;;2.88;84.72;102137.38;4989310;28;20217;-71
2021/03/03 08:53:30;;;;;;;33.20;14.87;;;;;;;3.00;83.70;102128.28;5003825;28;20712;-72
2021/03/03 08:55:59;;;;;;;33.80;14.40;;;;;;;3.11;83.64;102132.88;5005248;28;20200;-71
2021/03/03 08:58:55;;;;;;;39.10;15.17;;;;;;;3.20;82.85;102131.44;5014995;28;20204;-72
2021/03/03 09:01:52;;;;;;;37.43;15.67;;;;;;;3.36;80.67;102130.16;5004163;28;20923;-71
2021/03/03 09:04:21;;;;;;;33.23;13.93;;;;;;;3.54;80.77;102128.94;5012517;28;20223;-72
2021/03/03 09:06:49;;;;;;;32.83;14.50;;;;;;;3.65;79.46;102134.38;4991598;28;20208;-72
2021/03/03 09:09:17;;;;;;;42.03;18.57;;;;;;;3.71;79.25;102122.50;5009262;28;20292;-72
2021/03/03 09:11:44;;;;;;;35.33;16.43;;;;;;;3.86;79.18;102129.75;5004227;28;20730;-71
2021/03/03 09:14:11;;;;;;;30.37;13.70;;;;;;;3.93;78.99;102129.06;4995173;28;20209;-72
2021/03/03 09:16:53;;;;;;;32.17;14.67;;;;;;;4.11;78.24;102130.38;5003741;28;20691;-72
2021/03/03 09:19:20;;;;;;;29.60;12.63;;;;;;;4.22;78.83;102128.94;5003107;28;20189;-71
2021/03/03 09:21:47;;;;;;;28.93;11.80;;;;;;;4.37;77.40;102136.16;5008163;28;20213;-71
2021/03/03 09:24:15;;;;;;;25.47;11.23;;;;;;;4.44;76.64;102129.44;4992196;28;20224;-73
2021/03/03 09:26:43;;;;;;;22.93;10.57;;;;;;;4.57;77.23;102130.59;5009364;28;20213;-73
2021/03/03 09:29:25;;;;;;;20.23;10.47;;;;;;;4.74;76.14;102131.84;5005671;28;20212;-73
2021/03/03 09:31:53;;;;;;;16.90;9.47;;;;;;;4.84;76.40;102131.22;5006572;28;20223;-73
2021/03/03 09:34:20;;;;;;;17.23;9.40;;;;;;;5.04;74.98;102126.44;4991502;28;20196;-73
2021/03/03 09:36:57;;;;;;;19.80;10.53;;;;;;;5.16;75.87;102120.66;5009061;28;20748;-71
2021/03/03 09:39:25;;;;;;;21.33;11.57;;;;;;;5.23;75.68;102122.53;5006380;28;20788;-73
2021/03/03 09:41:58;;;;;;;16.57;9.87;;;;;;;5.35;73.77;102116.72;5010276;28;20743;-72
2021/03/03 09:44:25;;;;;;;17.63;9.43;;;;;;;5.48;74.31;102113.50;5008098;28;20894;-72
2021/03/03 09:46:58;;;;;;;16.90;8.43;;;;;;;5.59;74.71;102118.00;5007661;28;20200;-73
2021/03/03 09:49:26;;;;;;;16.33;8.37;;;;;;;5.74;73.68;102109.66;5010580;28;20204;-73
2021/03/03 09:51:54;;;;;;;16.17;9.33;;;;;;;5.83;74.38;102112.41;5007635;28;20212;-72
2021/03/03 09:54:35;;;;;;;16.43;8.67;;;;;;;5.92;73.87;102104.78;5003741;28;20205;-73
2021/03/03 09:57:11;;;;;;;17.13;8.37;;;;;;;6.02;72.60;102103.28;4979301;28;20283;-70
2021/03/03 09:59:41;;;;;;;16.67;8.60;;;;;;;6.18;72.31;102097.47;5006411;28;20245;-73
2021/03/03 10:02:10;;;;;;;14.93;7.93;;;;;;;6.18;72.61;102091.44;5006864;28;20204;-73
2021/03/03 10:04:39;;;;;;;17.37;8.50;;;;;;;6.33;71.26;102106.31;5006813;28;20212;-73
2021/03/03 10:07:11;;;;;;;14.80;9.00;;;;;;;6.44;72.13;102094.41;5008902;28;20690;-73
2021/03/03 10:09:40;;;;;;;14.30;8.20;;;;;;;6.58;71.50;102089.44;5008724;28;20247;-73
2021/03/03 10:12:13;;;;;;;14.43;8.77;;;;;;;6.69;70.94;102095.63;5004374;28;20196;-74
2021/03/03 10:14:58;;;;;;;14.57;8.17;;;;;;;6.73;71.47;102092.22;4990884;28;20288;-73
2021/03/03 10:17:30;;;;;;;16.63;9.00;;;;;;;6.78;71.40;102089.69;5001982;28;20602;-73
2021/03/03 10:19:57;;;;;;;15.17;8.90;;;;;;;6.93;69.64;102092.50;5006579;28;20216;-72
2021/03/03 10:22:24;;;;;;;16.27;8.43;;;;;;;7.17;69.55;102085.84;5005185;28;20247;-73
2021/03/03 10:24:56;;;;;;;14.90;8.90;;;;;;;7.29;69.55;102083.38;5009318;28;20224;-73
2021/03/03 10:27:23;;;;;;;14.10;8.13;;;;;;;7.37;69.46;102080.88;4984792;28;20239;-74
2021/03/03 10:29:50;;;;;;;14.83;8.60;;;;;;;7.44;68.65;102085.28;5008981;28;20199;-72
2021/03/03 10:32:16;;;;;;;14.67;8.43;;;;;;;7.58;67.94;102086.28;5009156;28;20202;-72
2021/03/03 10:34:44;;;;;;;16.43;8.23;;;;;;;7.64;67.48;102080.25;5006566;28;20189;-73
2021/03/03 10:37:23;;;;;;;15.87;8.23;;;;;;;7.74;67.36;102082.09;5005333;28;20204;-72
2021/03/03 10:39:50;;;;;;;15.83;8.03;;;;;;;7.91;68.03;102076.16;5005665;28;20838;-72
2021/03/03 10:42:22;;;;;;;17.43;9.03;;;;;;;8.05;67.46;102074.53;5007749;28;20247;-71
2021/03/03 10:44:52;;;;;;;16.27;8.47;;;;;;;8.12;66.09;102072.84;4994269;28;20212;-73
2021/03/03 10:47:38;;;;;;;13.17;8.27;;;;;;;8.26;67.24;102068.63;4971965;28;20211;-72
2021/03/03 10:50:06;;;;;;;15.30;8.37;;;;;;;8.28;66.56;102072.09;5006685;28;20635;-73
2021/03/03 10:52:32;;;;;;;14.60;8.57;;;;;;;8.41;65.28;102069.56;5004062;28;20211;-71
2021/03/03 10:54:59;;;;;;;15.00;7.70;;;;;;;8.55;65.83;102064.47;5007514;28;20673;-73
2021/03/03 10:57:25;;;;;;;12.77;8.10;;;;;;;8.70;64.04;102064.56;5004648;28;20684;-71
2021/03/03 11:00:03;;;;;;;12.73;7.50;;;;;;;8.80;65.18;102055.09;4998632;28;20201;-73
2021/03/03 11:02:29;;;;;;;14.37;8.50;;;;;;;8.87;63.93;102052.50;5003568;28;20231;-72
2021/03/03 11:04:56;;;;;;;13.77;7.60;;;;;;;8.92;64.52;102047.34;5000132;28;20209;-73
2021/03/03 11:07:22;;;;;;;14.17;7.80;;;;;;;8.97;63.78;102044.72;4986857;28;20329;-71
2021/03/03 11:09:51;;;;;;;14.73;7.87;;;;;;;9.04;63.74;102041.28;5007766;28;20198;-73
2021/03/03 11:12:22;;;;;;;14.40;8.07;;;;;;;9.14;62.72;102043.03;4990140;28;20216;-73
2021/03/03 11:14:49;;;;;;;13.80;7.67;;;;;;;9.40;62.48;102039.63;5010825;28;20563;-73
2021/03/03 11:17:17;;;;;;;14.37;7.23;;;;;;;9.54;61.97;102037.91;5000074;28;20198;-72